Time;durP1;ratioP1;P1;durP2;ratioP2;P2;SDS_P1;SDS_P2;PMS_P1;PMS_P2;Temp;Humidity;BMP_temperature;BMP_pressure;BME280_temperature;BME280_humidity;BME280_pressure;Samples;Min_cycle;Max_cycle;Signal;HPM_P1;HPM_P2
2023/04/17 00:00:57;;;;;;;5.43;3.80;;;14.50;69.40;;;;;;5055975;28;20447;-84
2023/04/17 00:03:23;;;;;;;4.80;3.50;;;14.40;69.40;;;;;;5066086;28;20354;-84
2023/04/17 00:05:48;;;;;;;3.88;3.47;;;14.40;69.50;;;;;;5058417;28;20029;-83
2023/04/17 00:08:14;;;;;;;4.85;3.88;;;14.40;69.50;;;;;;5050490;28;20078;-83
2023/04/17 00:10:40;;;;;;;4.28;3.03;;;14.40;69.70;;;;;;5048611;28;20040;-82
2023/04/17 00:13:06;;;;;;;3.88;3.42;;;14.40;69.80;;;;;;5054002;28;20419;-81
2023/04/17 00:15:31;;;;;;;3.58;3.13;;;14.30;70.00;;;;;;5043943;28;20496;-82
2023/04/17 00:17:57;;;;;;;3.90;3.03;;;14.30;70.00;;;;;;5046252;28;20024;-81
2023/04/17 00:20:22;;;;;;;4.45;3.30;;;14.40;70.20;;;;;;5045341;28;20033;-82
2023/04/17 00:22:48;;;;;;;5.32;3.22;;;14.40;70.30;;;;;;5057649;28;20036;-81
2023/04/17 00:25:14;;;;;;;4.55;3.67;;;14.40;70.30;;;;;;5052126;28;20029;-80
2023/04/17 00:27:42;;;;;;;4.45;3.20;;;14.30;70.20;;;;;;5049970;28;20054;-79
2023/04/17 00:30:08;;;;;;;5.25;3.38;;;14.20;70.20;;;;;;5052098;28;20032;-80
2023/04/17 00:32:34;;;;;;;3.47;2.78;;;14.30;70.70;;;;;;5049875;28;20025;-80
2023/04/17 00:35:00;;;;;;;3.40;2.83;;;14.30;70.60;;;;;;5058056;28;20029;-74
2023/04/17 00:37:26;;;;;;;4.07;2.70;;;14.30;70.30;;;;;;5043600;28;20056;-74
2023/04/17 00:39:51;;;;;;;4.05;3.63;;;14.30;70.10;;;;;;5050843;28;20029;-76
2023/04/17 00:42:17;;;;;;;6.57;3.85;;;14.20;69.90;;;;;;5039084;28;20376;-75
2023/04/17 00:44:43;;;;;;;3.70;2.45;;;14.20;70.00;;;;;;5060697;28;20029;-75
2023/04/17 00:47:08;;;;;;;3.33;2.60;;;14.20;69.90;;;;;;5043912;28;20040;-75
2023/04/17 00:49:35;;;;;;;2.78;2.25;;;14.20;70.00;;;;;;5044279;28;20057;-77
2023/04/17 00:52:01;;;;;;;2.60;2.15;;;14.30;70.00;;;;;;5040028;28;20044;-75
2023/04/17 00:54:28;;;;;;;5.20;2.28;;;14.30;69.60;;;;;;5051721;28;20033;-77
2023/04/17 00:56:55;;;;;;;1.95;1.60;;;14.30;69.30;;;;;;5055168;28;20457;-77
2023/04/17 00:59:22;;;;;;;3.17;2.08;;;14.30;69.00;;;;;;5056608;28;20029;-76
2023/04/17 01:01:48;;;;;;;3.90;2.20;;;14.30;69.00;;;;;;5063990;28;20029;-76
2023/04/17 01:04:14;;;;;;;2.80;2.35;;;14.40;69.20;;;;;;5051517;28;20119;-82
2023/04/17 01:06:40;;;;;;;3.00;2.05;;;14.40;69.00;;;;;;5031755;28;20026;-82
2023/04/17 01:09:07;;;;;;;4.20;2.25;;;14.50;68.70;;;;;;5052905;28;20033;-81
2023/04/17 01:11:33;;;;;;;2.38;2.10;;;14.50;68.40;;;;;;5049969;28;20020;-81
2023/04/17 01:13:58;;;;;;;2.30;2.00;;;14.50;68.20;;;;;;5046287;28;20025;-82
2023/04/17 01:16:24;;;;;;;3.50;2.20;;;14.50;68.20;;;;;;5054091;28;20028;-82
2023/04/17 01:18:50;;;;;;;2.65;1.92;;;14.50;68.30;;;;;;5064825;28;20035;-80
2023/04/17 01:21:15;;;;;;;2.60;2.13;;;14.40;68.30;;;;;;5038370;28;20583;-81
2023/04/17 01:23:44;;;;;;;3.17;2.25;;;14.40;68.50;;;;;;5057812;28;20021;-80
2023/04/17 01:26:15;;;;;;;2.38;2.03;;;14.40;68.50;;;;;;5058379;28;20423;-80
2023/04/17 01:28:41;;;;;;;3.10;1.75;;;14.40;68.70;;;;;;5065701;28;20477;-80
2023/04/17 01:31:06;;;;;;;3.63;2.38;;;14.30;68.50;;;;;;5050350;28;20032;-79
2023/04/17 01:33:32;;;;;;;3.15;2.80;;;14.30;68.60;;;;;;5037903;28;20033;-80
2023/04/17 01:35:58;;;;;;;2.15;1.90;;;14.20;69.40;;;;;;5054826;28;20080;-79
2023/04/17 01:38:24;;;;;;;2.80;2.25;;;14.20;69.40;;;;;;5068851;28;20047;-80
2023/04/17 01:40:50;;;;;;;2.53;2.08;;;14.20;69.00;;;;;;5056343;28;20057;-79
2023/04/17 01:43:15;;;;;;;3.05;2.30;;;14.20;69.10;;;;;;5074657;28;20477;-80
2023/04/17 01:45:41;;;;;;;2.75;2.42;;;14.20;69.30;;;;;;5042138;28;20040;-80
2023/04/17 01:48:07;;;;;;;2.92;2.40;;;14.20;69.50;;;;;;5070688;28;20060;-80
2023/04/17 01:50:32;;;;;;;3.50;2.35;;;14.20;69.50;;;;;;5049356;28;20108;-81
2023/04/17 01:52:58;;;;;;;4.95;2.58;;;14.20;69.40;;;;;;5059055;28;20037;-81
2023/04/17 01:55:23;;;;;;;3.22;2.70;;;14.20;69.50;;;;;;5057778;28;20023;-81
2023/04/17 01:57:50;;;;;;;3.63;2.35;;;14.10;69.50;;;;;;5056746;28;20024;-81
2023/04/17 02:00:16;;;;;;;3.08;2.35;;;14.10;69.90;;;;;;5037604;28;20021;-81
2023/04/17 02:02:42;;;;;;;4.45;2.45;;;14.00;70.00;;;;;;5066704;28;20032;-81
2023/04/17 02:05:08;;;;;;;2.63;2.25;;;14.00;69.90;;;;;;5058190;28;20024;-81
2023/04/17 02:07:33;;;;;;;4.43;2.58;;;14.00;70.10;;;;;;5050783;28;20037;-81
2023/04/17 02:09:59;;;;;;;3.28;2.65;;;14.10;70.10;;;;;;5035116;28;20044;-82
2023/04/17 02:12:25;;;;;;;3.25;2.55;;;14.00;70.00;;;;;;5036407;28;20040;-82
2023/04/17 02:14:50;;;;;;;2.85;2.30;;;14.00;70.00;;;;;;5060994;28;20066;-82
2023/04/17 02:17:16;;;;;;;3.65;2.47;;;14.00;70.00;;;;;;5049571;28;20419;-81
2023/04/17 02:19:42;;;;;;;5.00;2.20;;;14.00;70.10;;;;;;5055915;28;20461;-81
2023/04/17 02:22:07;;;;;;;2.80;2.45;;;14.00;70.20;;;;;;5054352;28;20040;-82
2023/04/17 02:24:33;;;;;;;2.25;2.05;;;14.00;70.30;;;;;;5053396;28;20034;-82
2023/04/17 02:26:59;;;;;;;2.35;2.15;;;14.00;70.50;;;;;;5053011;28;20020;-82
2023/04/17 02:29:25;;;;;;;2.63;2.30;;;14.00;70.50;;;;;;5054670;28;20040;-81
2023/04/17 02:31:50;;;;;;;4.13;2.40;;;14.00;70.70;;;;;;5070595;28;20437;-81
2023/04/17 02:34:16;;;;;;;3.22;2.40;;;14.00;71.00;;;;;;5054869;28;20029;-81
2023/04/17 02:36:41;;;;;;;2.83;2.25;;;14.00;71.00;;;;;;5053556;28;20077;-81
2023/04/17 02:39:07;;;;;;;2.90;2.28;;;14.00;70.90;;;;;;5055098;28;20435;-82
2023/04/17 02:41:33;;;;;;;3.67;2.22;;;14.00;70.70;;;;;;5058917;28;20035;-82
2023/04/17 02:44:00;;;;;;;4.70;2.45;;;14.00;70.70;;;;;;5062061;28;20111;-81
2023/04/17 02:46:26;;;;;;;3.22;2.38;;;14.00;70.60;;;;;;5042520;28;20073;-80
2023/04/17 02:48:51;;;;;;;3.72;2.15;;;14.00;70.60;;;;;;5053669;28;20366;-79
2023/04/17 02:51:17;;;;;;;4.65;2.20;;;14.00;70.50;;;;;;5069525;28;20071;-80
2023/04/17 02:53:43;;;;;;;2.58;2.35;;;14.00;70.60;;;;;;5033130;28;20090;-79
2023/04/17 02:56:08;;;;;;;2.50;2.20;;;13.90;70.60;;;;;;5049817;28;20024;-79
2023/04/17 02:58:34;;;;;;;2.60;2.28;;;13.90;70.60;;;;;;5067142;28;20029;-79
2023/04/17 03:01:01;;;;;;;2.55;2.17;;;13.90;70.70;;;;;;5058377;28;20461;-79
2023/04/17 03:03:29;;;;;;;6.38;2.45;;;13.90;70.60;;;;;;5048945;28;20036;-80
2023/04/17 03:05:56;;;;;;;3.22;2.20;;;13.90;70.60;;;;;;5062515;28;20024;-80
2023/04/17 03:08:23;;;;;;;2.80;2.40;;;13.90;70.70;;;;;;5072343;28;20488;-81
2023/04/17 03:10:51;;;;;;;3.30;2.63;;;13.90;70.80;;;;;;5062671;28;20432;-82
2023/04/17 03:13:17;;;;;;;2.60;1.98;;;13.90;70.70;;;;;;5047615;28;20028;-81
2023/04/17 03:15:43;;;;;;;3.53;2.22;;;13.90;70.60;;;;;;5049159;28;20465;-81
2023/04/17 03:18:08;;;;;;;3.97;2.38;;;13.80;70.60;;;;;;5055492;28;20392;-80
2023/04/17 03:20:34;;;;;;;4.65;2.33;;;13.80;70.70;;;;;;5054651;28;20402;-80
2023/04/17 03:22:59;;;;;;;4.05;2.65;;;13.80;70.80;;;;;;5043404;28;20033;-80
2023/04/17 03:25:25;;;;;;;3.28;2.38;;;13.80;71.00;;;;;;5058486;28;20032;-80
2023/04/17 03:27:51;;;;;;;2.90;2.30;;;13.80;71.00;;;;;;5039026;28;20033;-80
2023/04/17 03:30:16;;;;;;;3.47;2.38;;;13.80;71.00;;;;;;5057922;28;20033;-80
2023/04/17 03:32:42;;;;;;;4.95;2.75;;;13.90;71.10;;;;;;5060526;28;20064;-80
2023/04/17 03:35:08;;;;;;;2.30;2.10;;;13.90;71.30;;;;;;5064391;28;20357;-81
2023/04/17 03:37:33;;;;;;;3.30;2.50;;;13.90;71.30;;;;;;5056437;28;20051;-80
2023/04/17 03:39:59;;;;;;;2.50;2.17;;;13.90;71.10;;;;;;5037861;28;20029;-80
2023/04/17 03:42:26;;;;;;;3.13;2.58;;;13.90;71.10;;;;;;5053786;28;20040;-80
2023/04/17 03:44:51;;;;;;;3.08;2.50;;;14.00;71.30;;;;;;5062069;28;20432;-80
2023/04/17 03:47:17;;;;;;;3.15;2.60;;;14.00;71.10;;;;;;5046274;28;20037;-80
2023/04/17 03:49:42;;;;;;;3.45;2.20;;;14.00;71.20;;;;;;5052468;28;20029;-80
2023/04/17 03:52:08;;;;;;;2.78;2.25;;;14.00;71.10;;;;;;5039831;28;20039;-81
2023/04/17 03:54:34;;;;;;;3.55;2.63;;;14.00;71.20;;;;;;5052088;28;20028;-81
2023/04/17 03:57:01;;;;;;;2.10;1.90;;;14.00;71.20;;;;;;5050380;28;20445;-80
2023/04/17 03:59:28;;;;;;;2.30;1.92;;;13.90;71.10;;;;;;5066479;28;20025;-81
2023/04/17 04:01:54;;;;;;;2.20;2.00;;;14.00;71.20;;;;;;5048862;28;20033;-75
2023/04/17 04:04:20;;;;;;;2.65;2.33;;;14.00;71.30;;;;;;5072661;28;20064;-76
2023/04/17 04:06:46;;;;;;;1.95;1.77;;;14.00;71.40;;;;;;5059347;28;20065;-76
2023/04/17 04:09:11;;;;;;;2.03;1.83;;;14.00;71.40;;;;;;5054483;28;20025;-83
2023/04/17 04:11:37;;;;;;;2.88;2.40;;;14.00;71.70;;;;;;5052072;28;20033;-82
2023/04/17 04:14:03;;;;;;;4.03;2.55;;;13.90;71.70;;;;;;5053618;28;20028;-82
2023/04/17 04:16:29;;;;;;;2.35;1.90;;;13.90;71.80;;;;;;5047094;28;21165;-82
2023/04/17 04:18:54;;;;;;;3.05;2.55;;;13.90;71.80;;;;;;5059150;28;20444;-82
2023/04/17 04:21:20;;;;;;;2.63;2.20;;;13.90;72.00;;;;;;5074547;28;20025;-82
2023/04/17 04:23:45;;;;;;;2.60;2.35;;;13.90;71.90;;;;;;5077891;28;20060;-82
2023/04/17 04:26:11;;;;;;;2.53;2.30;;;13.90;72.20;;;;;;5064365;28;20029;-76
2023/04/17 04:28:37;;;;;;;8.68;2.28;;;13.90;71.90;;;;;;5056152;28;20044;-75
2023/04/17 04:31:03;;;;;;;2.80;2.30;;;13.90;71.90;;;;;;5060593;28;20369;-76
2023/04/17 04:33:29;;;;;;;7.03;2.42;;;13.90;71.60;;;;;;5051840;28;20033;-76
2023/04/17 04:35:55;;;;;;;3.15;2.13;;;13.90;71.60;;;;;;5052613;28;20105;-75
2023/04/17 04:38:28;;;;;;;5.60;1.90;;;13.90;71.40;;;;;;5056175;28;20048;-76
2023/04/17 04:41:00;;;;;;;2.50;2.00;;;14.00;71.30;;;;;;5046738;28;20346;-76
2023/04/17 04:43:27;;;;;;;2.55;1.70;;;14.00;71.30;;;;;;5069367;28;20036;-76
2023/04/17 04:45:53;;;;;;;3.33;1.67;;;14.10;71.40;;;;;;5067913;28;20032;-76
2023/04/17 04:48:19;;;;;;;2.42;1.80;;;14.10;71.50;;;;;;5060016;28;20376;-76
2023/04/17 04:50:45;;;;;;;2.33;1.42;;;14.20;71.40;;;;;;5073756;28;20041;-74
2023/04/17 04:53:11;;;;;;;5.03;1.80;;;14.20;71.10;;;;;;5061200;28;20079;-75
2023/04/17 04:55:36;;;;;;;1.75;1.38;;;14.20;71.40;;;;;;5055480;28;20037;-75
2023/04/17 04:58:02;;;;;;;4.95;1.90;;;14.30;70.70;;;;;;5055970;28;20029;-75
2023/04/17 05:00:27;;;;;;;3.65;2.10;;;14.30;70.80;;;;;;5059313;28;21588;-75
2023/04/17 05:02:53;;;;;;;2.50;1.45;;;14.30;70.90;;;;;;5062384;28;20456;-75
2023/04/17 05:05:19;;;;;;;1.70;1.50;;;14.30;70.70;;;;;;5045485;28;20041;-82
2023/04/17 05:07:45;;;;;;;1.80;1.65;;;14.30;70.90;;;;;;5042275;28;20065;-82
2023/04/17 05:10:10;;;;;;;2.58;1.60;;;14.30;70.90;;;;;;5069425;28;20480;-82
2023/04/17 05:12:36;;;;;;;3.58;1.60;;;14.30;71.20;;;;;;5042224;28;20036;-79
2023/04/17 05:15:02;;;;;;;3.72;1.52;;;14.30;70.80;;;;;;5020383;28;20057;-79
2023/04/17 05:17:28;;;;;;;2.65;1.70;;;14.20;70.80;;;;;;5039924;28;20037;-79
2023/04/17 05:19:53;;;;;;;1.70;1.35;;;14.20;70.90;;;;;;5052041;28;20075;-78
2023/04/17 05:22:20;;;;;;;2.47;1.80;;;14.20;71.00;;;;;;5043520;28;20033;-79
2023/04/17 05:24:46;;;;;;;2.78;1.52;;;14.20;72.20;;;;;;5035191;28;20033;-78
2023/04/17 05:27:11;;;;;;;3.05;1.75;;;14.20;72.50;;;;;;5038105;28;20447;-76
2023/04/17 05:29:37;;;;;;;3.22;1.70;;;14.30;73.10;;;;;;5054595;28;20075;-79
2023/04/17 05:32:03;;;;;;;2.17;1.55;;;14.30;73.40;;;;;;5048917;28;20030;-77
2023/04/17 05:34:28;;;;;;;1.35;1.25;;;14.40;73.80;;;;;;5050783;28;20050;-79
2023/04/17 05:36:54;;;;;;;1.40;1.30;;;14.40;74.50;;;;;;5042466;28;20044;-77
2023/04/17 05:39:20;;;;;;;2.17;1.30;;;14.40;74.40;;;;;;5052710;28;20492;-77
2023/04/17 05:41:46;;;;;;;1.90;1.42;;;14.30;74.70;;;;;;5052441;28;20033;-77
2023/04/17 05:44:11;;;;;;;3.08;1.80;;;14.30;74.70;;;;;;5048398;28;20024;-77
2023/04/17 05:46:37;;;;;;;2.83;1.92;;;14.20;75.00;;;;;;5042373;28;20086;-75
2023/04/17 05:49:03;;;;;;;2.47;1.80;;;14.20;75.10;;;;;;5059551;28;20060;-83
2023/04/17 05:51:28;;;;;;;1.98;1.77;;;14.20;75.70;;;;;;5064738;28;20041;-86
2023/04/17 05:53:54;;;;;;;3.83;2.03;;;14.10;76.40;;;;;;5059998;28;20054;-86
2023/04/17 05:56:20;;;;;;;4.65;2.55;;;14.10;76.80;;;;;;5057107;28;20091;-88
2023/04/17 05:58:49;;;;;;;3.33;2.80;;;14.20;77.20;;;;;;5072865;28;20027;-87
2023/04/17 06:01:16;;;;;;;3.67;2.00;;;14.10;77.20;;;;;;5071055;28;20519;-87
2023/04/17 06:03:42;;;;;;;2.97;2.17;;;14.20;77.50;;;;;;5056144;28;20556;-86
2023/04/17 06:06:08;;;;;;;2.55;2.00;;;14.20;78.00;;;;;;5057732;28;20068;-87
2023/04/17 06:08:33;;;;;;;3.50;1.75;;;14.20;78.70;;;;;;5056558;28;20107;-76
2023/04/17 06:10:59;;;;;;;3.50;2.40;;;14.30;78.80;;;;;;5059924;28;20039;-87
2023/04/17 06:13:26;;;;;;;2.35;2.03;;;14.30;78.50;;;;;;5069478;28;20500;-82
2023/04/17 06:15:52;;;;;;;2.63;2.10;;;14.30;78.80;;;;;;5050502;28;20369;-83
2023/04/17 06:18:18;;;;;;;3.72;2.10;;;14.30;79.10;;;;;;5038374;28;20029;-82
2023/04/17 06:20:44;;;;;;;4.85;2.13;;;14.30;79.20;;;;;;5047581;28;20469;-83
2023/04/17 06:23:10;;;;;;;4.13;2.05;;;14.30;79.20;;;;;;5043400;28;20033;-82
2023/04/17 06:25:36;;;;;;;3.83;2.03;;;14.30;79.30;;;;;;5049077;28;20116;-82
2023/04/17 06:28:02;;;;;;;3.75;2.22;;;14.30;79.60;;;;;;5022622;28;20474;-82
2023/04/17 06:30:28;;;;;;;3.50;2.08;;;14.30;79.80;;;;;;5061458;28;20392;-82
2023/04/17 06:32:54;;;;;;;3.08;2.08;;;14.40;79.70;;;;;;5036811;28;20112;-79
2023/04/17 06:35:20;;;;;;;5.00;2.72;;;14.40;79.80;;;;;;5057465;28;20031;-84
2023/04/17 06:37:46;;;;;;;3.08;2.17;;;14.40;80.30;;;;;;5036500;28;20045;-84
2023/04/17 06:40:12;;;;;;;2.80;1.92;;;14.40;80.40;;;;;;5046034;28;20040;-80
2023/04/17 06:42:37;;;;;;;4.88;2.65;;;14.50;80.30;;;;;;5036763;28;20032;-80
2023/04/17 06:45:04;;;;;;;3.30;2.53;;;14.50;80.30;;;;;;5039192;28;20366;-80
2023/04/17 06:47:30;;;;;;;4.55;2.40;;;14.50;79.60;;;;;;5054183;28;20028;-80
2023/04/17 06:49:58;;;;;;;3.42;2.63;;;14.50;79.60;;;;;;5036609;28;20029;-80
2023/04/17 06:52:25;;;;;;;3.15;1.83;;;14.50;78.80;;;;;;5037870;28;20021;-84
2023/04/17 06:54:54;;;;;;;4.07;2.20;;;14.50;78.40;;;;;;5022599;28;20033;-85
2023/04/17 06:57:21;;;;;;;2.92;2.30;;;14.60;78.70;;;;;;5059395;28;20060;-85
2023/04/17 06:59:47;;;;;;;3.33;1.90;;;14.60;78.40;;;;;;5064028;28;20021;-86
2023/04/17 07:02:13;;;;;;;2.30;1.70;;;14.70;78.40;;;;;;5061422;28;20032;-84
2023/04/17 07:04:39;;;;;;;3.72;2.72;;;14.90;77.30;;;;;;5048553;28;20028;-78
2023/04/17 07:07:04;;;;;;;3.22;1.90;;;15.00;77.30;;;;;;5054675;28;20068;-79
2023/04/17 07:09:30;;;;;;;3.03;1.65;;;15.10;76.20;;;;;;5041565;28;20036;-83
2023/04/17 07:11:56;;;;;;;2.45;1.73;;;15.30;75.60;;;;;;5035594;28;20032;-83
2023/04/17 07:14:22;;;;;;;2.08;1.67;;;15.40;74.60;;;;;;5040218;28;20025;-84
2023/04/17 07:16:48;;;;;;;2.20;1.63;;;15.60;73.50;;;;;;5035424;28;20030;-82
2023/04/17 07:19:14;;;;;;;2.45;1.65;;;15.70;73.40;;;;;;5034222;28;20014;-78
2023/04/17 07:21:40;;;;;;;2.00;1.65;;;15.90;73.20;;;;;;5016047;28;20063;-78
2023/04/17 07:24:05;;;;;;;1.77;1.60;;;16.00;72.30;;;;;;5015803;28;20123;-83
2023/04/17 07:26:31;;;;;;;1.98;1.42;;;16.10;71.60;;;;;;5034580;28;20077;-78
2023/04/17 07:28:57;;;;;;;1.35;1.20;;;16.20;72.00;;;;;;5033447;28;20037;-78
2023/04/17 07:31:22;;;;;;;3.28;1.33;;;16.30;69.50;;;;;;5033865;28;20025;-78
2023/04/17 07:33:48;;;;;;;1.60;1.25;;;16.30;70.30;;;;;;5033593;28;20029;-78
2023/04/17 07:36:14;;;;;;;1.77;1.35;;;16.40;70.20;;;;;;5033124;28;20080;-78
2023/04/17 07:38:41;;;;;;;1.50;1.05;;;16.50;69.60;;;;;;5033493;28;20026;-78
2023/04/17 07:41:07;;;;;;;1.00;0.90;;;16.70;69.70;;;;;;5033830;28;20021;-78
2023/04/17 07:43:32;;;;;;;2.10;1.27;;;16.80;69.00;;;;;;5033323;28;20025;-78
2023/04/17 07:45:58;;;;;;;1.92;1.00;;;16.90;68.90;;;;;;5033003;28;20465;-77
2023/04/17 07:48:25;;;;;;;2.30;1.20;;;17.00;67.60;;;;;;5032874;28;20033;-78
2023/04/17 07:50:51;;;;;;;5.30;1.10;;;17.00;66.30;;;;;;5033180;28;20144;-77
2023/04/17 07:53:17;;;;;;;1.90;0.98;;;17.10;66.00;;;;;;5033004;28;20109;-77
2023/04/17 07:55:43;;;;;;;1.42;1.08;;;17.10;65.90;;;;;;5032962;28;20321;-78
2023/04/17 07:58:10;;;;;;;6.57;1.10;;;17.20;66.60;;;;;;5033027;28;20022;-79
2023/04/17 08:00:37;;;;;;;1.08;0.82;;;17.40;64.80;;;;;;5033037;28;20039;-78
2023/04/17 08:03:04;;;;;;;1.52;1.20;;;17.40;64.00;;;;;;5015287;28;20397;-79
2023/04/17 08:05:30;;;;;;;1.77;0.90;;;17.60;64.90;;;;;;5015053;28;20113;-78
2023/04/17 08:07:56;;;;;;;1.67;1.08;;;17.70;64.60;;;;;;5032806;28;20441;-78
2023/04/17 08:10:21;;;;;;;1.02;0.77;;;17.90;64.10;;;;;;5035660;28;20037;-78
2023/04/17 08:12:47;;;;;;;2.05;0.85;;;18.00;63.10;;;;;;5037194;28;20473;-78
2023/04/17 08:15:13;;;;;;;1.35;0.80;;;18.00;60.70;;;;;;5037419;28;20385;-78
2023/04/17 08:17:38;;;;;;;0.80;0.70;;;18.10;60.80;;;;;;5037477;28;20022;-78
2023/04/17 08:20:10;;;;;;;0.82;0.82;;;18.20;60.40;;;;;;5037308;28;20040;-78
2023/04/17 08:22:42;;;;;;;1.77;0.90;;;18.20;60.20;;;;;;5038250;28;20128;-84
2023/04/17 08:25:08;;;;;;;0.93;0.68;;;18.30;60.00;;;;;;5038872;28;20021;-84
2023/04/17 08:27:35;;;;;;;0.90;0.65;;;18.30;56.90;;;;;;5038086;28;20067;-83
2023/04/17 08:30:03;;;;;;;0.85;0.60;;;18.30;57.60;;;;;;5037889;28;20030;-83
2023/04/17 08:32:29;;;;;;;0.55;0.55;;;18.40;57.40;;;;;;5037884;28;20460;-84
2023/04/17 08:34:57;;;;;;;1.48;0.60;;;18.50;57.00;;;;;;5037826;28;20044;-83
2023/04/17 08:37:23;;;;;;;0.50;0.50;;;18.50;55.80;;;;;;5020151;28;20073;-83
2023/04/17 08:39:51;;;;;;;0.40;0.40;;;18.50;55.20;;;;;;5037860;28;20049;-83
2023/04/17 08:42:17;;;;;;;1.05;0.60;;;18.60;55.80;;;;;;5037827;28;20120;-84
2023/04/17 08:44:42;;;;;;;0.45;0.40;;;18.70;55.20;;;;;;5020036;28;20457;-83
2023/04/17 08:47:08;;;;;;;0.77;0.50;;;18.80;53.60;;;;;;5037460;28;20033;-83
2023/04/17 08:49:35;;;;;;;0.50;0.47;;;18.90;54.50;;;;;;5036899;28;20385;-84
2023/04/17 08:52:03;;;;;;;0.88;0.50;;;19.00;54.40;;;;;;5037112;28;20424;-84
2023/04/17 08:54:29;;;;;;;1.67;0.52;;;19.10;54.10;;;;;;5019024;28;20025;-83
2023/04/17 08:56:56;;;;;;;0.60;0.57;;;19.20;54.30;;;;;;5037236;28;20026;-83
2023/04/17 08:59:22;;;;;;;1.10;0.50;;;19.30;53.70;;;;;;5037392;28;20018;-84
2023/04/17 09:02:07;;;;;;;0.60;0.60;;;19.30;53.50;;;;;;5037758;28;20124;-84
2023/04/17 09:04:41;;;;;;;0.50;0.50;;;19.30;52.90;;;;;;5037089;28;20026;-84
2023/04/17 09:07:08;;;;;;;0.55;0.50;;;19.40;53.70;;;;;;5036796;28;20482;-84
2023/04/17 09:09:51;;;;;;;2.55;0.50;;;19.40;52.60;;;;;;5018998;28;20552;-84
2023/04/17 09:12:19;;;;;;;1.30;0.75;;;19.50;52.90;;;;;;5036699;28;20030;-84
2023/04/17 09:14:44;;;;;;;0.60;0.50;;;19.50;53.10;;;;;;5038007;28;20053;-84
2023/04/17 09:17:10;;;;;;;1.65;0.60;;;19.60;52.30;;;;;;5036618;28;20088;-84
2023/04/17 09:19:36;;;;;;;1.13;0.63;;;19.60;52.40;;;;;;5037059;28;20053;-84
2023/04/17 09:22:21;;;;;;;0.60;0.45;;;19.60;52.00;;;;;;5018067;28;20029;-83
2023/04/17 09:24:47;;;;;;;0.80;0.50;;;19.60;51.20;;;;;;5036092;28;20496;-83
2023/04/17 09:27:24;;;;;;;0.40;0.40;;;19.60;51.50;;;;;;5019314;28;20060;-84
2023/04/17 09:30:00;;;;;;;0.45;0.30;;;19.70;49.50;;;;;;5035915;28;20028;-77
2023/04/17 09:32:26;;;;;;;0.57;0.45;;;19.70;49.80;;;;;;5035377;28;20025;-77
2023/04/17 09:34:53;;;;;;;0.60;0.47;;;19.80;50.10;;;;;;5035378;28;20029;-77
2023/04/17 09:37:19;;;;;;;0.45;0.45;;;19.80;49.70;;;;;;5035532;28;20467;-77
2023/04/17 09:40:06;;;;;;;0.70;0.40;;;19.90;49.50;;;;;;5036179;28;20040;-83
2023/04/17 09:42:32;;;;;;;3.03;0.60;;;19.90;49.20;;;;;;5035940;28;20024;-83
2023/04/17 09:45:17;;;;;;;1.30;0.60;;;19.80;49.40;;;;;;5035898;28;20029;-82
2023/04/17 09:47:46;;;;;;;0.50;0.43;;;19.80;49.40;;;;;;5035774;28;20029;-83
2023/04/17 09:50:23;;;;;;;0.57;0.57;;;19.70;49.20;;;;;;5035385;28;20144;-83
2023/04/17 09:52:53;;;;;;;1.08;0.60;;;19.60;50.00;;;;;;5035316;28;20153;-84
2023/04/17 09:55:20;;;;;;;0.70;0.65;;;19.50;50.30;;;;;;5035232;28;20036;-83
2023/04/17 09:57:51;;;;;;;1.02;0.57;;;19.50;51.00;;;;;;5035013;28;20014;-83
2023/04/17 10:00:22;;;;;;;1.25;0.70;;;19.40;51.20;;;;;;5035305;28;20091;-83
2023/04/17 10:02:50;;;;;;;1.17;0.50;;;19.20;51.80;;;;;;5035247;28;20028;-83
2023/04/17 10:05:17;;;;;;;1.33;1.00;;;19.20;53.10;;;;;;5035710;28;20029;-83
2023/04/17 10:07:44;;;;;;;1.20;0.88;;;19.10;54.70;;;;;;5035232;28;20032;-83
2023/04/17 10:10:10;;;;;;;1.25;0.90;;;19.00;55.80;;;;;;5044855;28;20503;-83
2023/04/17 10:12:38;;;;;;;1.00;0.90;;;18.90;56.50;;;;;;5055834;28;20021;-85
2023/04/17 10:15:12;;;;;;;2.22;0.90;;;18.80;56.90;;;;;;5030216;28;20033;-84
2023/04/17 10:17:37;;;;;;;1.08;0.80;;;18.70;57.60;;;;;;5061074;28;20020;-83
2023/04/17 10:20:21;;;;;;;0.85;0.63;;;18.70;58.60;;;;;;5067025;28;20040;-83
2023/04/17 10:22:53;;;;;;;1.65;0.90;;;18.70;59.60;;;;;;5048294;28;20104;-82
2023/04/17 10:25:20;;;;;;;2.35;1.05;;;18.60;59.70;;;;;;5053789;28;20021;-84
2023/04/17 10:27:53;;;;;;;2.70;0.88;;;18.60;60.10;;;;;;5037148;28;20041;-78
2023/04/17 10:30:21;;;;;;;1.83;1.10;;;18.60;59.90;;;;;;5055827;28;20123;-77
2023/04/17 10:33:18;;;;;;;1.00;0.90;;;18.60;59.70;;;;;;5069615;28;20028;-78
2023/04/17 10:35:44;;;;;;;1.20;1.10;;;18.60;60.20;;;;;;5051127;28;20017;-78
2023/04/17 10:38:10;;;;;;;1.20;0.80;;;18.50;60.00;;;;;;5059443;28;20033;-78
2023/04/17 10:40:37;;;;;;;1.48;0.80;;;18.50;60.40;;;;;;5061371;28;20032;-78
2023/04/17 10:43:16;;;;;;;2.13;1.15;;;18.50;60.90;;;;;;5056463;28;20025;-77
2023/04/17 10:45:58;;;;;;;1.90;0.87;;;18.50;62.60;;;;;;5054061;28;20466;-79
2023/04/17 10:48:36;;;;;;;1.15;1.00;;;18.50;61.40;;;;;;5053808;28;20044;-78
2023/04/17 10:51:21;;;;;;;1.02;0.90;;;18.50;61.00;;;;;;5043421;28;20021;-78
2023/04/17 10:53:58;;;;;;;1.10;0.93;;;18.50;60.10;;;;;;5049280;28;20502;-78
2023/04/17 10:56:48;;;;;;;2.40;1.10;;;18.40;59.70;;;;;;5036405;28;20029;-78
2023/04/17 10:59:15;;;;;;;1.80;1.17;;;18.40;59.70;;;;;;5049418;28;20049;-78
2023/04/17 11:01:46;;;;;;;1.05;0.80;;;18.40;60.20;;;;;;5050177;28;20025;-78
2023/04/17 11:04:23;;;;;;;1.33;0.88;;;18.40;58.40;;;;;;5055066;28;20112;-81
2023/04/17 11:06:51;;;;;;;1.80;0.90;;;18.50;59.00;;;;;;5057524;28;20024;-81
2023/04/17 11:09:19;;;;;;;1.83;0.85;;;18.50;59.30;;;;;;5033153;28;20044;-81
2023/04/17 11:11:45;;;;;;;0.95;0.80;;;18.60;59.10;;;;;;5035824;28;20059;-81
2023/04/17 11:14:30;;;;;;;0.90;0.60;;;18.70;57.70;;;;;;5053179;28;20068;-81
2023/04/17 11:16:55;;;;;;;1.25;0.90;;;18.80;57.10;;;;;;5048703;28;20100;-84
2023/04/17 11:19:23;;;;;;;0.95;0.82;;;18.80;57.50;;;;;;5049966;28;20052;-84
2023/04/17 11:21:52;;;;;;;0.77;0.77;;;18.90;56.80;;;;;;5037664;28;20021;-84
2023/04/17 11:24:26;;;;;;;1.08;0.90;;;18.90;56.80;;;;;;5047063;28;20068;-85
2023/04/17 11:26:52;;;;;;;1.48;0.73;;;19.00;55.80;;;;;;5046289;28;20508;-85
2023/04/17 11:29:20;;;;;;;0.80;0.80;;;19.00;55.90;;;;;;5036842;28;20389;-84
2023/04/17 11:31:47;;;;;;;0.70;0.60;;;19.10;55.00;;;;;;5047320;28;20021;-84
2023/04/17 11:34:15;;;;;;;1.08;0.95;;;19.10;54.80;;;;;;5047118;28;20041;-85
2023/04/17 11:36:57;;;;;;;0.95;0.75;;;19.20;54.80;;;;;;5040433;28;20551;-84
2023/04/17 11:39:27;;;;;;;0.77;0.73;;;19.20;54.70;;;;;;5028371;28;20023;-79
2023/04/17 11:41:55;;;;;;;;;;;19.20;54.60;;;;;;5053800;28;20512;-79
2023/04/17 11:44:22;;;;;;;0.65;0.63;;;19.20;54.50;;;;;;5053621;28;19912;-84
2023/04/17 11:46:57;;;;;;;2.72;0.73;;;19.20;54.20;;;;;;5054132;28;20017;-84
2023/04/17 11:49:37;;;;;;;0.60;0.60;;;19.30;53.90;;;;;;5053160;28;20457;-79
2023/04/17 11:52:04;;;;;;;0.90;0.73;;;19.40;54.20;;;;;;5053109;28;20033;-83
2023/04/17 11:54:36;;;;;;;2.15;0.80;;;19.40;54.40;;;;;;5036501;28;20041;-84
2023/04/17 11:57:11;;;;;;;2.50;0.90;;;19.50;54.10;;;;;;5049136;28;20013;-84
2023/04/17 11:59:38;;;;;;;2.35;0.80;;;19.50;53.70;;;;;;5053532;28;20056;-83
2023/04/17 12:02:06;;;;;;;0.95;0.80;;;19.60;53.90;;;;;;5063712;28;20021;-79
2023/04/17 12:04:33;;;;;;;0.70;0.60;;;19.60;53.50;;;;;;5046827;28;20033;-84
2023/04/17 12:07:03;;;;;;;1.50;0.88;;;19.60;53.80;;;;;;5057442;28;20373;-80
2023/04/17 12:09:32;;;;;;;0.85;0.50;;;19.60;52.90;;;;;;5050692;28;20411;-80
2023/04/17 12:12:03;;;;;;;0.97;0.80;;;19.60;53.00;;;;;;5069813;28;20035;-81
2023/04/17 12:14:29;;;;;;;0.80;0.52;;;19.50;52.70;;;;;;5065283;28;20072;-80
2023/04/17 12:16:55;;;;;;;1.23;0.57;;;19.50;52.80;;;;;;5057405;28;20029;-80
2023/04/17 12:19:20;;;;;;;0.80;0.70;;;19.50;52.50;;;;;;5073499;28;20028;-85
2023/04/17 12:21:46;;;;;;;3.00;0.70;;;19.60;53.20;;;;;;5039623;28;20037;-85
2023/04/17 12:24:13;;;;;;;0.77;0.50;;;19.60;52.60;;;;;;5073840;28;20105;-85
2023/04/17 12:26:48;;;;;;;1.25;0.73;;;19.70;52.80;;;;;;5065644;28;20105;-85
2023/04/17 12:29:15;;;;;;;0.93;0.52;;;19.70;52.30;;;;;;5066503;28;20095;-80
2023/04/17 12:31:41;;;;;;;0.85;0.73;;;19.70;52.70;;;;;;5056172;28;20075;-80
2023/04/17 12:34:07;;;;;;;1.20;0.80;;;19.80;52.00;;;;;;5072792;28;20032;-80
2023/04/17 12:36:33;;;;;;;1.02;0.55;;;19.80;51.90;;;;;;5053296;28;20040;-81
2023/04/17 12:38:59;;;;;;;1.27;0.90;;;19.80;51.90;;;;;;5072903;28;20035;-81
2023/04/17 12:41:25;;;;;;;0.43;0.43;;;19.80;52.00;;;;;;5054856;28;20111;-81
2023/04/17 12:43:52;;;;;;;0.98;0.88;;;19.80;51.70;;;;;;5071618;28;20031;-81
2023/04/17 12:46:17;;;;;;;0.60;0.60;;;19.90;51.90;;;;;;5042844;28;20492;-81
2023/04/17 12:48:43;;;;;;;1.13;0.73;;;19.90;51.90;;;;;;5066397;28;20035;-81